sensor_id;sensor_type;location;lat;lon;timestamp;temperature;humidity
10459;DHT22;5277;48.722;8.736;2022-08-11T00:01:36;16.40;66.90
10459;DHT22;5277;48.722;8.736;2022-08-11T00:04:03;16.30;67.40
10459;DHT22;5277;48.722;8.736;2022-08-11T00:06:35;16.30;67.90
10459;DHT22;5277;48.722;8.736;2022-08-11T00:09:04;16.30;67.90
10459;DHT22;5277;48.722;8.736;2022-08-11T00:11:36;16.20;68.90
10459;DHT22;5277;48.722;8.736;2022-08-11T00:14:04;16.20;68.30
10459;DHT22;5277;48.722;8.736;2022-08-11T00:16:37;16.20;68.40
10459;DHT22;5277;48.722;8.736;2022-08-11T00:19:04;16.20;68.40
10459;DHT22;5277;48.722;8.736;2022-08-11T00:21:30;16.10;69.10
10459;DHT22;5277;48.722;8.736;2022-08-11T00:24:03;16.10;69.40
10459;DHT22;5277;48.722;8.736;2022-08-11T00:26:30;16.00;68.70
10459;DHT22;5277;48.722;8.736;2022-08-11T00:28:56;16.00;69.10
10459;DHT22;5277;48.722;8.736;2022-08-11T00:31:33;16.00;69.80
10459;DHT22;5277;48.722;8.736;2022-08-11T00:34:00;15.90;70.10
10459;DHT22;5277;48.722;8.736;2022-08-11T00:36:36;15.90;70.40
10459;DHT22;5277;48.722;8.736;2022-08-11T00:39:05;15.90;70.50
10459;DHT22;5277;48.722;8.736;2022-08-11T00:44:22;15.80;70.50
10459;DHT22;5277;48.722;8.736;2022-08-11T00:53:23;15.50;71.20
10459;DHT22;5277;48.722;8.736;2022-08-11T01:32:54;15.10;75.00
10459;DHT22;5277;48.722;8.736;2022-08-11T01:49:38;14.80;76.30
10459;DHT22;5277;48.722;8.736;2022-08-11T01:52:39;14.70;77.00
10459;DHT22;5277;48.722;8.736;2022-08-11T02:00:44;14.70;77.80
10459;DHT22;5277;48.722;8.736;2022-08-11T02:03:33;14.50;78.10
10459;DHT22;5277;48.722;8.736;2022-08-11T02:10:02;14.40;78.80
10459;DHT22;5277;48.722;8.736;2022-08-11T02:12:38;14.50;78.70
10459;DHT22;5277;48.722;8.736;2022-08-11T02:15:37;14.50;79.20
10459;DHT22;5277;48.722;8.736;2022-08-11T02:18:37;14.40;78.70
10459;DHT22;5277;48.722;8.736;2022-08-11T02:21:28;14.40;79.40
10459;DHT22;5277;48.722;8.736;2022-08-11T02:24:28;14.40;79.70
10459;DHT22;5277;48.722;8.736;2022-08-11T02:27:05;14.30;80.50
10459;DHT22;5277;48.722;8.736;2022-08-11T02:30:00;14.30;79.90
10459;DHT22;5277;48.722;8.736;2022-08-11T02:32:38;14.20;80.10
10459;DHT22;5277;48.722;8.736;2022-08-11T02:35:26;14.20;79.90
10459;DHT22;5277;48.722;8.736;2022-08-11T02:38:20;14.20;81.30
10459;DHT22;5277;48.722;8.736;2022-08-11T02:41:00;14.20;81.40
10459;DHT22;5277;48.722;8.736;2022-08-11T02:44:14;14.20;81.40
10459;DHT22;5277;48.722;8.736;2022-08-11T02:46:50;14.20;81.20
10459;DHT22;5277;48.722;8.736;2022-08-11T02:49:47;14.20;80.80
10459;DHT22;5277;48.722;8.736;2022-08-11T02:52:47;14.20;81.20
10459;DHT22;5277;48.722;8.736;2022-08-11T02:55:16;14.20;81.20
10459;DHT22;5277;48.722;8.736;2022-08-11T02:58:10;14.20;80.70
10459;DHT22;5277;48.722;8.736;2022-08-11T03:00:51;14.20;81.20
10459;DHT22;5277;48.722;8.736;2022-08-11T03:03:50;14.10;81.70
10459;DHT22;5277;48.722;8.736;2022-08-11T03:06:58;14.10;81.70
10459;DHT22;5277;48.722;8.736;2022-08-11T03:12:43;14.00;82.40
10459;DHT22;5277;48.722;8.736;2022-08-11T03:15:51;13.90;82.90
10459;DHT22;5277;48.722;8.736;2022-08-11T03:19:27;13.80;82.80
10459;DHT22;5277;48.722;8.736;2022-08-11T03:24:32;13.70;83.10
10459;DHT22;5277;48.722;8.736;2022-08-11T03:27:08;13.70;83.10
10459;DHT22;5277;48.722;8.736;2022-08-11T03:29:52;13.80;83.40
10459;DHT22;5277;48.722;8.736;2022-08-11T03:32:29;13.70;83.10
10459;DHT22;5277;48.722;8.736;2022-08-11T03:34:58;13.70;83.10
10459;DHT22;5277;48.722;8.736;2022-08-11T03:37:47;13.70;83.70
10459;DHT22;5277;48.722;8.736;2022-08-11T03:43:53;13.60;84.00
10459;DHT22;5277;48.722;8.736;2022-08-11T03:47:00;13.50;84.70
10459;DHT22;5277;48.722;8.736;2022-08-11T03:53:01;13.40;84.10
10459;DHT22;5277;48.722;8.736;2022-08-11T03:58:29;13.20;85.30
10459;DHT22;5277;48.722;8.736;2022-08-11T04:01:36;13.20;85.40
10459;DHT22;5277;48.722;8.736;2022-08-11T04:39:03;13.10;87.90
10459;DHT22;5277;48.722;8.736;2022-08-11T04:46:05;13.10;88.60
10459;DHT22;5277;48.722;8.736;2022-08-11T05:12:57;13.00;89.40
10459;DHT22;5277;48.722;8.736;2022-08-11T05:15:56;13.10;89.30
10459;DHT22;5277;48.722;8.736;2022-08-11T05:18:52;13.10;89.40
10459;DHT22;5277;48.722;8.736;2022-08-11T05:21:38;13.10;89.50
10459;DHT22;5277;48.722;8.736;2022-08-11T05:24:49;13.10;89.70
10459;DHT22;5277;48.722;8.736;2022-08-11T05:28:01;13.20;89.70
10459;DHT22;5277;48.722;8.736;2022-08-11T05:30:46;13.30;89.10
10459;DHT22;5277;48.722;8.736;2022-08-11T05:33:53;13.40;89.40
10459;DHT22;5277;48.722;8.736;2022-08-11T05:36:56;13.50;89.30
10459;DHT22;5277;48.722;8.736;2022-08-11T05:39:31;13.50;89.50
10459;DHT22;5277;48.722;8.736;2022-08-11T05:42:21;13.60;89.80
10459;DHT22;5277;48.722;8.736;2022-08-11T05:45:15;13.60;89.90
10459;DHT22;5277;48.722;8.736;2022-08-11T05:48:01;13.70;89.90
10459;DHT22;5277;48.722;8.736;2022-08-11T05:50:57;13.70;89.30
10459;DHT22;5277;48.722;8.736;2022-08-11T05:53:51;13.80;88.90
10459;DHT22;5277;48.722;8.736;2022-08-11T05:56:52;13.90;89.00
10459;DHT22;5277;48.722;8.736;2022-08-11T05:59:22;13.90;88.90
10459;DHT22;5277;48.722;8.736;2022-08-11T06:01:49;14.00;89.20
10459;DHT22;5277;48.722;8.736;2022-08-11T06:04:20;14.10;88.00
10459;DHT22;5277;48.722;8.736;2022-08-11T06:11:49;14.50;87.10
10459;DHT22;5277;48.722;8.736;2022-08-11T06:14:17;14.70;85.40
10459;DHT22;5277;48.722;8.736;2022-08-11T06:16:47;14.90;84.90
10459;DHT22;5277;48.722;8.736;2022-08-11T06:19:13;15.20;84.50
10459;DHT22;5277;48.722;8.736;2022-08-11T06:21:46;15.50;84.20
10459;DHT22;5277;48.722;8.736;2022-08-11T06:24:15;15.90;82.70
10459;DHT22;5277;48.722;8.736;2022-08-11T06:26:50;16.20;81.90
10459;DHT22;5277;48.722;8.736;2022-08-11T06:29:16;16.50;81.30
10459;DHT22;5277;48.722;8.736;2022-08-11T06:31:57;16.80;80.30
10459;DHT22;5277;48.722;8.736;2022-08-11T06:47:52;18.50;74.30
10459;DHT22;5277;48.722;8.736;2022-08-11T06:50:22;18.70;73.20
10459;DHT22;5277;48.722;8.736;2022-08-11T06:53:08;18.90;72.10
10459;DHT22;5277;48.722;8.736;2022-08-11T06:55:42;19.20;71.50
10459;DHT22;5277;48.722;8.736;2022-08-11T06:58:35;19.40;71.30
10459;DHT22;5277;48.722;8.736;2022-08-11T07:01:50;19.70;69.30
10459;DHT22;5277;48.722;8.736;2022-08-11T07:04:43;19.90;68.00
10459;DHT22;5277;48.722;8.736;2022-08-11T07:13:12;20.60;64.20
10459;DHT22;5277;48.722;8.736;2022-08-11T07:15:58;20.90;63.40
10459;DHT22;5277;48.722;8.736;2022-08-11T07:18:26;21.10;63.70
10459;DHT22;5277;48.722;8.736;2022-08-11T07:21:30;21.30;63.20
10459;DHT22;5277;48.722;8.736;2022-08-11T07:24:21;21.50;62.10
10459;DHT22;5277;48.722;8.736;2022-08-11T07:27:10;21.80;61.50
10459;DHT22;5277;48.722;8.736;2022-08-11T07:29:55;22.00;60.60
10459;DHT22;5277;48.722;8.736;2022-08-11T07:32:30;22.20;59.40
10459;DHT22;5277;48.722;8.736;2022-08-11T07:35:09;22.40;60.00
10459;DHT22;5277;48.722;8.736;2022-08-11T07:37:42;22.50;59.30
10459;DHT22;5277;48.722;8.736;2022-08-11T07:40:13;22.80;59.50
10459;DHT22;5277;48.722;8.736;2022-08-11T07:42:51;22.90;58.70
10459;DHT22;5277;48.722;8.736;2022-08-11T07:45:33;23.20;58.60
10459;DHT22;5277;48.722;8.736;2022-08-11T07:48:28;23.50;57.70
10459;DHT22;5277;48.722;8.736;2022-08-11T07:51:18;23.70;57.30
10459;DHT22;5277;48.722;8.736;2022-08-11T07:57:16;24.40;55.00
10459;DHT22;5277;48.722;8.736;2022-08-11T08:00:06;24.80;53.30
10459;DHT22;5277;48.722;8.736;2022-08-11T08:02:50;25.10;52.20
10459;DHT22;5277;48.722;8.736;2022-08-11T08:05:36;25.40;51.70
10459;DHT22;5277;48.722;8.736;2022-08-11T08:08:28;25.70;50.50
10459;DHT22;5277;48.722;8.736;2022-08-11T08:11:13;25.90;49.40
10459;DHT22;5277;48.722;8.736;2022-08-11T08:14:11;25.90;47.90
10459;DHT22;5277;48.722;8.736;2022-08-11T08:16:56;25.90;48.10
10459;DHT22;5277;48.722;8.736;2022-08-11T08:19:42;26.40;48.40
10459;DHT22;5277;48.722;8.736;2022-08-11T08:22:15;26.70;47.70
10459;DHT22;5277;48.722;8.736;2022-08-11T08:24:48;26.90;46.60
10459;DHT22;5277;48.722;8.736;2022-08-11T08:27:14;27.00;46.10
10459;DHT22;5277;48.722;8.736;2022-08-11T08:29:42;27.20;46.70
10459;DHT22;5277;48.722;8.736;2022-08-11T08:32:33;27.30;44.10
10459;DHT22;5277;48.722;8.736;2022-08-11T08:35:03;27.40;44.50
10459;DHT22;5277;48.722;8.736;2022-08-11T08:37:32;27.40;44.70
10459;DHT22;5277;48.722;8.736;2022-08-11T08:40:01;27.40;44.00
10459;DHT22;5277;48.722;8.736;2022-08-11T08:42:29;27.60;44.60
10459;DHT22;5277;48.722;8.736;2022-08-11T08:45:03;27.80;43.70
10459;DHT22;5277;48.722;8.736;2022-08-11T08:47:30;27.90;42.40
10459;DHT22;5277;48.722;8.736;2022-08-11T08:50:14;27.70;42.70
10459;DHT22;5277;48.722;8.736;2022-08-11T08:53:03;27.80;42.90
10459;DHT22;5277;48.722;8.736;2022-08-11T08:55:34;28.10;42.30
10459;DHT22;5277;48.722;8.736;2022-08-11T08:58:12;28.30;42.20
10459;DHT22;5277;48.722;8.736;2022-08-11T09:00:44;28.20;41.20
10459;DHT22;5277;48.722;8.736;2022-08-11T09:03:10;28.50;41.90
10459;DHT22;5277;48.722;8.736;2022-08-11T09:05:37;28.60;40.80
10459;DHT22;5277;48.722;8.736;2022-08-11T09:08:03;28.70;41.10
10459;DHT22;5277;48.722;8.736;2022-08-11T09:10:33;28.80;40.80
10459;DHT22;5277;48.722;8.736;2022-08-11T09:13:08;28.90;40.10
10459;DHT22;5277;48.722;8.736;2022-08-11T09:15:37;29.00;39.90
10459;DHT22;5277;48.722;8.736;2022-08-11T09:18:07;29.10;40.30
10459;DHT22;5277;48.722;8.736;2022-08-11T09:20:40;29.30;40.10
10459;DHT22;5277;48.722;8.736;2022-08-11T09:23:08;29.50;40.30
10459;DHT22;5277;48.722;8.736;2022-08-11T09:25:58;29.60;40.10
10459;DHT22;5277;48.722;8.736;2022-08-11T09:28:47;29.80;39.30
10459;DHT22;5277;48.722;8.736;2022-08-11T09:31:15;30.10;38.30
10459;DHT22;5277;48.722;8.736;2022-08-11T09:33:44;30.20;38.70
10459;DHT22;5277;48.722;8.736;2022-08-11T09:36:13;30.70;38.20
10459;DHT22;5277;48.722;8.736;2022-08-11T09:38:59;31.10;37.20
10459;DHT22;5277;48.722;8.736;2022-08-11T09:41:45;31.30;35.90
10459;DHT22;5277;48.722;8.736;2022-08-11T09:44:14;31.60;35.70
10459;DHT22;5277;48.722;8.736;2022-08-11T09:46:59;31.80;35.10
10459;DHT22;5277;48.722;8.736;2022-08-11T09:49:27;32.10;35.30
10459;DHT22;5277;48.722;8.736;2022-08-11T09:51:54;32.50;33.70
10459;DHT22;5277;48.722;8.736;2022-08-11T09:54:23;32.60;33.10
10459;DHT22;5277;48.722;8.736;2022-08-11T09:56:52;32.90;33.80
10459;DHT22;5277;48.722;8.736;2022-08-11T09:59:37;33.30;32.50
10459;DHT22;5277;48.722;8.736;2022-08-11T10:02:05;32.90;31.20
10459;DHT22;5277;48.722;8.736;2022-08-11T10:04:41;32.70;32.30
10459;DHT22;5277;48.722;8.736;2022-08-11T10:07:09;33.10;31.40
10459;DHT22;5277;48.722;8.736;2022-08-11T10:12:34;33.60;30.10
10459;DHT22;5277;48.722;8.736;2022-08-11T10:15:17;33.80;30.60
10459;DHT22;5277;48.722;8.736;2022-08-11T10:18:07;34.30;30.70
10459;DHT22;5277;48.722;8.736;2022-08-11T10:21:00;34.90;30.80
10459;DHT22;5277;48.722;8.736;2022-08-11T10:23:29;35.60;29.30
10459;DHT22;5277;48.722;8.736;2022-08-11T10:26:17;36.00;28.60
10459;DHT22;5277;48.722;8.736;2022-08-11T10:29:02;36.20;28.60
10459;DHT22;5277;48.722;8.736;2022-08-11T10:31:50;36.60;28.40
10459;DHT22;5277;48.722;8.736;2022-08-11T10:34:34;36.90;28.70
10459;DHT22;5277;48.722;8.736;2022-08-11T10:37:01;36.80;28.20
10459;DHT22;5277;48.722;8.736;2022-08-11T10:39:28;37.20;28.40
10459;DHT22;5277;48.722;8.736;2022-08-11T10:41:55;37.60;28.10
10459;DHT22;5277;48.722;8.736;2022-08-11T10:44:45;38.10;27.70
10459;DHT22;5277;48.722;8.736;2022-08-11T10:47:13;37.60;27.60
10459;DHT22;5277;48.722;8.736;2022-08-11T10:49:58;37.90;27.40
10459;DHT22;5277;48.722;8.736;2022-08-11T10:52:44;37.60;27.20
10459;DHT22;5277;48.722;8.736;2022-08-11T10:55:31;38.20;27.70
10459;DHT22;5277;48.722;8.736;2022-08-11T10:58:16;38.80;26.40
10459;DHT22;5277;48.722;8.736;2022-08-11T11:01:01;38.50;26.30
10459;DHT22;5277;48.722;8.736;2022-08-11T11:03:29;39.00;26.30
10459;DHT22;5277;48.722;8.736;2022-08-11T11:06:07;39.30;26.10
10459;DHT22;5277;48.722;8.736;2022-08-11T11:08:41;38.90;26.30
10459;DHT22;5277;48.722;8.736;2022-08-11T11:11:22;39.80;26.00
10459;DHT22;5277;48.722;8.736;2022-08-11T11:13:51;40.40;25.90
10459;DHT22;5277;48.722;8.736;2022-08-11T11:16:36;41.20;25.20
10459;DHT22;5277;48.722;8.736;2022-08-11T11:19:23;41.50;24.20
10459;DHT22;5277;48.722;8.736;2022-08-11T11:21:53;42.10;24.30
10459;DHT22;5277;48.722;8.736;2022-08-11T11:28:27;42.10;24.00
10459;DHT22;5277;48.722;8.736;2022-08-11T11:30:16;42.50;23.60
10459;DHT22;5277;48.722;8.736;2022-08-11T11:32:56;42.40;23.90
10459;DHT22;5277;48.722;8.736;2022-08-11T11:35:36;42.70;23.80
10459;DHT22;5277;48.722;8.736;2022-08-11T11:38:05;43.00;22.50
10459;DHT22;5277;48.722;8.736;2022-08-11T11:40:37;42.90;22.80
10459;DHT22;5277;48.722;8.736;2022-08-11T11:43:04;42.90;22.80
10459;DHT22;5277;48.722;8.736;2022-08-11T11:45:31;42.70;23.70
10459;DHT22;5277;48.722;8.736;2022-08-11T11:47:58;42.80;22.90
10459;DHT22;5277;48.722;8.736;2022-08-11T11:50:27;42.70;22.80
10459;DHT22;5277;48.722;8.736;2022-08-11T11:52:54;42.50;22.90
10459;DHT22;5277;48.722;8.736;2022-08-11T11:55:22;42.30;22.50
10459;DHT22;5277;48.722;8.736;2022-08-11T11:57:49;42.10;23.00
10459;DHT22;5277;48.722;8.736;2022-08-11T12:00:34;41.50;24.00
10459;DHT22;5277;48.722;8.736;2022-08-11T12:03:33;42.10;23.50
10459;DHT22;5277;48.722;8.736;2022-08-11T12:06:00;42.30;23.50
10459;DHT22;5277;48.722;8.736;2022-08-11T12:08:27;42.20;22.70
10459;DHT22;5277;48.722;8.736;2022-08-11T12:11:01;42.00;22.50
10459;DHT22;5277;48.722;8.736;2022-08-11T12:13:47;41.20;22.80
10459;DHT22;5277;48.722;8.736;2022-08-11T12:16:24;41.30;23.70
10459;DHT22;5277;48.722;8.736;2022-08-11T12:18:54;41.70;23.40
10459;DHT22;5277;48.722;8.736;2022-08-11T12:21:22;42.20;23.00
10459;DHT22;5277;48.722;8.736;2022-08-11T12:23:57;42.00;23.20
10459;DHT22;5277;48.722;8.736;2022-08-11T12:26:43;42.60;23.40
10459;DHT22;5277;48.722;8.736;2022-08-11T12:29:28;43.60;22.30
10459;DHT22;5277;48.722;8.736;2022-08-11T12:31:54;44.00;21.30
10459;DHT22;5277;48.722;8.736;2022-08-11T12:34:26;44.20;22.20
10459;DHT22;5277;48.722;8.736;2022-08-11T12:37:02;43.50;22.10
10459;DHT22;5277;48.722;8.736;2022-08-11T12:39:34;43.70;22.40
10459;DHT22;5277;48.722;8.736;2022-08-11T12:42:20;43.80;22.40
10459;DHT22;5277;48.722;8.736;2022-08-11T12:45:11;43.90;22.20
10459;DHT22;5277;48.722;8.736;2022-08-11T12:48:09;43.70;21.60
10459;DHT22;5277;48.722;8.736;2022-08-11T12:51:02;42.60;22.20
10459;DHT22;5277;48.722;8.736;2022-08-11T12:54:01;40.80;23.30
10459;DHT22;5277;48.722;8.736;2022-08-11T12:56:44;39.10;23.90
10459;DHT22;5277;48.722;8.736;2022-08-11T12:59:30;37.70;27.30
10459;DHT22;5277;48.722;8.736;2022-08-11T13:02:16;36.70;25.90
10459;DHT22;5277;48.722;8.736;2022-08-11T13:05:02;35.70;27.60
10459;DHT22;5277;48.722;8.736;2022-08-11T13:07:30;34.90;28.00
10459;DHT22;5277;48.722;8.736;2022-08-11T13:10:02;34.10;29.30
10459;DHT22;5277;48.722;8.736;2022-08-11T13:12:29;33.50;28.70
10459;DHT22;5277;48.722;8.736;2022-08-11T13:15:24;33.10;30.30
10459;DHT22;5277;48.722;8.736;2022-08-11T13:17:52;32.40;30.20
10459;DHT22;5277;48.722;8.736;2022-08-11T13:20:21;31.60;31.60
10459;DHT22;5277;48.722;8.736;2022-08-11T13:22:52;31.10;32.20
10459;DHT22;5277;48.722;8.736;2022-08-11T13:25:21;30.60;32.40
10459;DHT22;5277;48.722;8.736;2022-08-11T13:27:49;30.30;33.20
10459;DHT22;5277;48.722;8.736;2022-08-11T13:30:16;30.20;32.90
10459;DHT22;5277;48.722;8.736;2022-08-11T13:33:01;29.80;32.00
10459;DHT22;5277;48.722;8.736;2022-08-11T13:35:29;29.50;32.40
10459;DHT22;5277;48.722;8.736;2022-08-11T13:37:57;29.40;33.80
10459;DHT22;5277;48.722;8.736;2022-08-11T13:40:23;29.20;33.10
10459;DHT22;5277;48.722;8.736;2022-08-11T13:42:50;29.20;34.30
10459;DHT22;5277;48.722;8.736;2022-08-11T13:45:18;29.10;34.70
10459;DHT22;5277;48.722;8.736;2022-08-11T13:47:46;28.90;34.30
10459;DHT22;5277;48.722;8.736;2022-08-11T13:50:13;28.90;34.60
10459;DHT22;5277;48.722;8.736;2022-08-11T13:52:40;28.80;34.80
10459;DHT22;5277;48.722;8.736;2022-08-11T13:55:09;28.70;33.70
10459;DHT22;5277;48.722;8.736;2022-08-11T13:57:36;28.60;34.70
10459;DHT22;5277;48.722;8.736;2022-08-11T14:00:07;28.40;34.50
10459;DHT22;5277;48.722;8.736;2022-08-11T14:02:40;28.40;35.50
10459;DHT22;5277;48.722;8.736;2022-08-11T14:05:19;28.40;34.30
10459;DHT22;5277;48.722;8.736;2022-08-11T14:07:52;28.20;33.70
10459;DHT22;5277;48.722;8.736;2022-08-11T14:10:21;28.20;33.00
10459;DHT22;5277;48.722;8.736;2022-08-11T14:13:05;28.20;34.20
10459;DHT22;5277;48.722;8.736;2022-08-11T14:15:51;28.00;34.10
10459;DHT22;5277;48.722;8.736;2022-08-11T14:18:25;28.00;36.00
10459;DHT22;5277;48.722;8.736;2022-08-11T14:20:56;28.00;34.30
10459;DHT22;5277;48.722;8.736;2022-08-11T14:23:46;28.00;36.30
10459;DHT22;5277;48.722;8.736;2022-08-11T14:26:18;27.90;36.10
10459;DHT22;5277;48.722;8.736;2022-08-11T14:29:11;28.00;36.30
10459;DHT22;5277;48.722;8.736;2022-08-11T14:31:43;27.90;36.40
10459;DHT22;5277;48.722;8.736;2022-08-11T14:34:10;27.70;36.90
10459;DHT22;5277;48.722;8.736;2022-08-11T14:36:42;27.70;36.70
10459;DHT22;5277;48.722;8.736;2022-08-11T14:39:12;27.70;36.50
10459;DHT22;5277;48.722;8.736;2022-08-11T14:41:59;27.60;36.80
10459;DHT22;5277;48.722;8.736;2022-08-11T14:44:48;27.60;36.80
10459;DHT22;5277;48.722;8.736;2022-08-11T14:47:35;27.60;35.70
10459;DHT22;5277;48.722;8.736;2022-08-11T14:50:02;27.60;37.90
10459;DHT22;5277;48.722;8.736;2022-08-11T14:52:32;27.60;36.90
10459;DHT22;5277;48.722;8.736;2022-08-11T14:55:00;27.60;35.00
10459;DHT22;5277;48.722;8.736;2022-08-11T14:57:46;27.60;35.80
10459;DHT22;5277;48.722;8.736;2022-08-11T15:00:14;27.60;35.90
10459;DHT22;5277;48.722;8.736;2022-08-11T15:02:41;27.50;36.20
10459;DHT22;5277;48.722;8.736;2022-08-11T15:05:26;27.50;36.40
10459;DHT22;5277;48.722;8.736;2022-08-11T15:07:53;27.50;37.10
10459;DHT22;5277;48.722;8.736;2022-08-11T15:10:20;27.40;35.30
10459;DHT22;5277;48.722;8.736;2022-08-11T15:12:48;27.50;35.70
10459;DHT22;5277;48.722;8.736;2022-08-11T15:15:15;27.50;35.90
10459;DHT22;5277;48.722;8.736;2022-08-11T15:18:05;27.40;37.30
10459;DHT22;5277;48.722;8.736;2022-08-11T15:20:31;27.50;36.00
10459;DHT22;5277;48.722;8.736;2022-08-11T15:23:16;27.50;36.70
10459;DHT22;5277;48.722;8.736;2022-08-11T15:26:06;27.50;37.50
10459;DHT22;5277;48.722;8.736;2022-08-11T15:28:39;27.50;37.00
10459;DHT22;5277;48.722;8.736;2022-08-11T15:31:27;27.40;38.40
10459;DHT22;5277;48.722;8.736;2022-08-11T15:34:14;27.30;37.40
10459;DHT22;5277;48.722;8.736;2022-08-11T15:37:05;27.20;39.50
10459;DHT22;5277;48.722;8.736;2022-08-11T15:43:06;27.30;37.50
10459;DHT22;5277;48.722;8.736;2022-08-11T15:45:54;27.20;36.90
10459;DHT22;5277;48.722;8.736;2022-08-11T15:51:09;27.10;38.00
10459;DHT22;5277;48.722;8.736;2022-08-11T15:53:48;27.20;36.40
10459;DHT22;5277;48.722;8.736;2022-08-11T15:56:16;27.10;37.30
10459;DHT22;5277;48.722;8.736;2022-08-11T15:58:45;27.10;37.40
10459;DHT22;5277;48.722;8.736;2022-08-11T16:01:31;27.10;37.50
10459;DHT22;5277;48.722;8.736;2022-08-11T16:04:21;27.10;37.30
10459;DHT22;5277;48.722;8.736;2022-08-11T16:09:49;27.00;37.60
10459;DHT22;5277;48.722;8.736;2022-08-11T16:12:23;27.00;37.10
10459;DHT22;5277;48.722;8.736;2022-08-11T16:14:53;27.00;37.60
10459;DHT22;5277;48.722;8.736;2022-08-11T16:17:49;27.00;35.40
10459;DHT22;5277;48.722;8.736;2022-08-11T16:20:19;27.00;35.80
10459;DHT22;5277;48.722;8.736;2022-08-11T16:22:47;27.10;36.50
10459;DHT22;5277;48.722;8.736;2022-08-11T16:25:19;27.20;35.40
10459;DHT22;5277;48.722;8.736;2022-08-11T16:28:01;27.20;37.10
10459;DHT22;5277;48.722;8.736;2022-08-11T16:30:45;27.20;37.40
10459;DHT22;5277;48.722;8.736;2022-08-11T16:33:12;27.20;34.90
10459;DHT22;5277;48.722;8.736;2022-08-11T16:35:43;27.20;36.00
10459;DHT22;5277;48.722;8.736;2022-08-11T16:38:28;27.20;35.70
10459;DHT22;5277;48.722;8.736;2022-08-11T16:41:05;27.20;36.60
10459;DHT22;5277;48.722;8.736;2022-08-11T16:43:35;27.10;37.40
10459;DHT22;5277;48.722;8.736;2022-08-11T16:46:22;27.00;36.80
10459;DHT22;5277;48.722;8.736;2022-08-11T16:49:20;27.00;36.40
10459;DHT22;5277;48.722;8.736;2022-08-11T16:51:49;26.90;36.60
10459;DHT22;5277;48.722;8.736;2022-08-11T16:54:15;26.90;35.70
10459;DHT22;5277;48.722;8.736;2022-08-11T16:56:48;26.90;36.40
10459;DHT22;5277;48.722;8.736;2022-08-11T16:59:21;26.80;36.00
10459;DHT22;5277;48.722;8.736;2022-08-11T17:01:52;26.70;37.10
10459;DHT22;5277;48.722;8.736;2022-08-11T17:04:30;26.70;36.20
10459;DHT22;5277;48.722;8.736;2022-08-11T17:07:18;26.60;36.60
10459;DHT22;5277;48.722;8.736;2022-08-11T17:10:05;26.60;36.20
10459;DHT22;5277;48.722;8.736;2022-08-11T17:12:51;26.60;36.20
10459;DHT22;5277;48.722;8.736;2022-08-11T17:15:47;26.50;36.90
10459;DHT22;5277;48.722;8.736;2022-08-11T17:18:39;26.50;36.20
10459;DHT22;5277;48.722;8.736;2022-08-11T17:21:19;26.50;37.00
10459;DHT22;5277;48.722;8.736;2022-08-11T17:24:05;26.50;37.60
10459;DHT22;5277;48.722;8.736;2022-08-11T17:26:42;26.40;38.80
10459;DHT22;5277;48.722;8.736;2022-08-11T17:32:00;26.40;35.40
10459;DHT22;5277;48.722;8.736;2022-08-11T17:34:46;26.40;36.10
10459;DHT22;5277;48.722;8.736;2022-08-11T17:37:33;26.40;36.70
10459;DHT22;5277;48.722;8.736;2022-08-11T17:40:02;26.50;36.30
10459;DHT22;5277;48.722;8.736;2022-08-11T17:42:30;26.50;36.40
10459;DHT22;5277;48.722;8.736;2022-08-11T17:45:18;26.50;37.50
10459;DHT22;5277;48.722;8.736;2022-08-11T17:48:03;26.40;38.80
10459;DHT22;5277;48.722;8.736;2022-08-11T17:50:48;26.30;38.90
10459;DHT22;5277;48.722;8.736;2022-08-11T17:53:16;26.10;37.50
10459;DHT22;5277;48.722;8.736;2022-08-11T17:56:04;26.10;40.00
10459;DHT22;5277;48.722;8.736;2022-08-11T17:58:51;26.10;39.20
10459;DHT22;5277;48.722;8.736;2022-08-11T18:01:37;26.00;39.10
10459;DHT22;5277;48.722;8.736;2022-08-11T18:04:06;25.90;42.10
10459;DHT22;5277;48.722;8.736;2022-08-11T18:06:33;25.80;40.30
10459;DHT22;5277;48.722;8.736;2022-08-11T18:09:08;25.70;40.70
10459;DHT22;5277;48.722;8.736;2022-08-11T18:11:54;25.60;41.70
10459;DHT22;5277;48.722;8.736;2022-08-11T18:14:45;25.50;41.50
10459;DHT22;5277;48.722;8.736;2022-08-11T18:17:30;25.40;42.30
10459;DHT22;5277;48.722;8.736;2022-08-11T18:20:15;25.30;43.70
10459;DHT22;5277;48.722;8.736;2022-08-11T18:23:03;25.20;42.50
10459;DHT22;5277;48.722;8.736;2022-08-11T18:25:49;25.10;42.70
10459;DHT22;5277;48.722;8.736;2022-08-11T18:28:45;25.00;42.00
10459;DHT22;5277;48.722;8.736;2022-08-11T18:31:33;24.90;43.40
10459;DHT22;5277;48.722;8.736;2022-08-11T18:34:27;24.80;42.80
10459;DHT22;5277;48.722;8.736;2022-08-11T18:37:17;24.70;43.80
10459;DHT22;5277;48.722;8.736;2022-08-11T18:40:09;24.60;44.30
10459;DHT22;5277;48.722;8.736;2022-08-11T18:42:57;24.50;44.40
10459;DHT22;5277;48.722;8.736;2022-08-11T18:45:46;24.40;44.70
10459;DHT22;5277;48.722;8.736;2022-08-11T18:48:34;24.20;45.40
10459;DHT22;5277;48.722;8.736;2022-08-11T18:51:20;24.10;45.40
10459;DHT22;5277;48.722;8.736;2022-08-11T18:54:08;24.00;45.70
10459;DHT22;5277;48.722;8.736;2022-08-11T18:56:57;23.80;47.20
10459;DHT22;5277;48.722;8.736;2022-08-11T18:59:44;23.60;47.20
10459;DHT22;5277;48.722;8.736;2022-08-11T19:02:30;23.50;46.50
10459;DHT22;5277;48.722;8.736;2022-08-11T19:05:17;23.50;47.10
10459;DHT22;5277;48.722;8.736;2022-08-11T19:08:02;23.40;46.40
10459;DHT22;5277;48.722;8.736;2022-08-11T19:10:48;23.20;46.20
10459;DHT22;5277;48.722;8.736;2022-08-11T19:13:34;23.10;46.30
10459;DHT22;5277;48.722;8.736;2022-08-11T19:16:21;23.10;46.50
10459;DHT22;5277;48.722;8.736;2022-08-11T19:19:08;23.10;47.00
10459;DHT22;5277;48.722;8.736;2022-08-11T19:21:53;23.00;47.40
10459;DHT22;5277;48.722;8.736;2022-08-11T19:24:39;22.80;47.20
10459;DHT22;5277;48.722;8.736;2022-08-11T19:27:25;22.70;47.90
10459;DHT22;5277;48.722;8.736;2022-08-11T19:30:11;22.50;48.80
10459;DHT22;5277;48.722;8.736;2022-08-11T19:32:56;22.50;48.50
10459;DHT22;5277;48.722;8.736;2022-08-11T19:35:42;22.40;49.40
10459;DHT22;5277;48.722;8.736;2022-08-11T19:38:27;22.30;49.10
10459;DHT22;5277;48.722;8.736;2022-08-11T19:41:14;22.10;49.50
10459;DHT22;5277;48.722;8.736;2022-08-11T19:43:59;21.70;49.90
10459;DHT22;5277;48.722;8.736;2022-08-11T19:46:44;21.70;50.20
10459;DHT22;5277;48.722;8.736;2022-08-11T19:49:29;21.70;50.20
10459;DHT22;5277;48.722;8.736;2022-08-11T19:52:14;21.70;50.60
10459;DHT22;5277;48.722;8.736;2022-08-11T19:55:00;21.60;51.30
10459;DHT22;5277;48.722;8.736;2022-08-11T19:57:45;21.50;50.40
10459;DHT22;5277;48.722;8.736;2022-08-11T20:00:29;21.40;51.10
10459;DHT22;5277;48.722;8.736;2022-08-11T20:03:13;21.40;50.20
10459;DHT22;5277;48.722;8.736;2022-08-11T20:06:05;21.30;51.20
10459;DHT22;5277;48.722;8.736;2022-08-11T20:08:53;21.30;51.80
10459;DHT22;5277;48.722;8.736;2022-08-11T20:11:42;21.20;51.20
10459;DHT22;5277;48.722;8.736;2022-08-11T20:14:30;21.10;50.90
10459;DHT22;5277;48.722;8.736;2022-08-11T20:17:16;21.00;51.20
10459;DHT22;5277;48.722;8.736;2022-08-11T20:20:04;20.90;51.90